Time;durP1;ratioP1;P1;durP2;ratioP2;P2;SDS_P1;SDS_P2;PMS_P1;PMS_P2;Temp;Humidity;BMP_temperature;BMP_pressure;BME280_temperature;BME280_humidity;BME280_pressure;Samples;Min_cycle;Max_cycle;Signal;HPM_P1;HPM_P2
2022/06/24 00:01:43;;;;;;;8.10;3.10;;;18.60;99.90;;;;;;5049032;28;20963;-67
2022/06/24 00:04:10;;;;;;;6.47;2.50;;;18.70;99.90;;;;;;5049411;28;20914;-67
2022/06/24 00:06:47;;;;;;;5.63;2.63;;;18.60;99.90;;;;;;5049393;28;20444;-67
2022/06/24 00:09:15;;;;;;;10.30;2.77;;;18.60;99.90;;;;;;5049365;28;20443;-68
2022/06/24 00:11:42;;;;;;;5.63;2.83;;;18.70;99.90;;;;;;5049031;28;20436;-67
2022/06/24 00:14:13;;;;;;;24.40;5.70;;;18.70;99.90;;;;;;5049461;28;20438;-67
2022/06/24 00:16:56;;;;;;;5.43;3.00;;;18.80;99.90;;;;;;5049561;28;20431;-68
2022/06/24 00:19:24;;;;;;;6.00;2.67;;;18.80;99.90;;;;;;5049435;28;20480;-66
2022/06/24 00:22:01;;;;;;;6.30;3.50;;;18.80;99.90;;;;;;5049092;28;20459;-67
2022/06/24 00:24:28;;;;;;;64.63;10.60;;;18.80;99.90;;;;;;5049426;28;20517;-66
2022/06/24 00:26:55;;;;;;;9.10;3.53;;;18.80;99.90;;;;;;5049069;28;20440;-68
2022/06/24 00:29:26;;;;;;;29.17;6.63;;;18.70;99.90;;;;;;5049210;28;20954;-67
2022/06/24 00:32:03;;;;;;;18.03;4.80;;;18.70;99.90;;;;;;5049039;28;20644;-67
2022/06/24 00:34:30;;;;;;;34.63;7.40;;;18.70;99.90;;;;;;5049208;28;20534;-67
2022/06/24 00:36:57;;;;;;;4.43;3.10;;;18.70;99.90;;;;;;5049101;28;20436;-68
2022/06/24 00:39:32;;;;;;;4.03;2.60;;;18.80;99.90;;;;;;5049071;28;20833;-68
2022/06/24 00:42:01;;;;;;;6.03;2.87;;;18.70;99.90;;;;;;5048825;28;21037;-66
2022/06/24 00:44:43;;;;;;;7.17;2.90;;;18.70;99.90;;;;;;5049152;28;20455;-68
2022/06/24 00:47:11;;;;;;;4.50;2.87;;;18.80;99.90;;;;;;5049282;28;20443;-67
2022/06/24 00:49:38;;;;;;;4.63;2.50;;;18.80;99.90;;;;;;5048894;28;20445;-66
2022/06/24 00:52:08;;;;;;;7.93;3.30;;;18.70;99.90;;;;;;5049230;28;20814;-67
2022/06/24 00:54:35;;;;;;;5.13;2.80;;;18.60;99.90;;;;;;5049556;28;20444;-66
2022/06/24 00:57:02;;;;;;;6.13;2.87;;;18.50;99.90;;;;;;5049487;28;20439;-67
2022/06/24 00:59:35;;;;;;;17.00;4.60;;;18.50;99.90;;;;;;5051651;28;20987;-67
2022/06/24 01:02:06;;;;;;;4.80;2.30;;;18.50;99.90;;;;;;5052827;28;20558;-67
2022/06/24 01:04:34;;;;;;;6.10;3.63;;;18.70;99.90;;;;;;5052987;28;20497;-67
2022/06/24 01:07:01;;;;;;;4.97;3.03;;;18.70;99.90;;;;;;5053025;28;20447;-67
2022/06/24 01:09:28;;;;;;;6.37;3.20;;;18.60;99.90;;;;;;5052757;28;20449;-68
2022/06/24 01:11:55;;;;;;;5.67;3.30;;;18.60;99.90;;;;;;5052440;28;20459;-68
2022/06/24 01:14:22;;;;;;;6.63;3.43;;;18.60;99.90;;;;;;5052551;28;20951;-68
2022/06/24 01:16:50;;;;;;;7.23;3.40;;;18.60;99.90;;;;;;5052687;28;20444;-67
2022/06/24 01:19:17;;;;;;;6.30;2.70;;;18.60;99.90;;;;;;5052580;28;20480;-68
2022/06/24 01:21:47;;;;;;;4.30;2.80;;;18.60;99.90;;;;;;5052134;28;20935;-67
2022/06/24 01:24:16;;;;;;;6.40;3.40;;;18.60;99.90;;;;;;5052641;28;20448;-68
2022/06/24 01:26:45;;;;;;;7.07;3.30;;;18.60;99.90;;;;;;5052282;28;20534;-67
2022/06/24 01:29:13;;;;;;;4.30;2.70;;;18.50;99.90;;;;;;5052421;28;20450;-67
2022/06/24 01:31:40;;;;;;;4.73;2.60;;;18.40;99.90;;;;;;5052067;28;20451;-68
2022/06/24 01:34:08;;;;;;;5.03;2.83;;;18.30;99.90;;;;;;5052268;28;20460;-68
2022/06/24 01:36:35;;;;;;;6.00;2.90;;;18.30;99.90;;;;;;5052259;28;20501;-68
2022/06/24 01:39:03;;;;;;;6.87;3.33;;;18.30;99.90;;;;;;5052218;28;20493;-67
2022/06/24 01:41:30;;;;;;;5.33;2.90;;;18.20;99.90;;;;;;5051677;28;20477;-67
2022/06/24 01:43:57;;;;;;;4.93;3.10;;;18.20;99.90;;;;;;5052071;28;20455;-68
2022/06/24 01:46:24;;;;;;;6.00;3.07;;;18.20;99.90;;;;;;5052189;28;20450;-68
2022/06/24 01:48:51;;;;;;;6.47;3.53;;;18.20;99.90;;;;;;5051970;28;20539;-67
2022/06/24 01:51:20;;;;;;;6.33;3.30;;;18.10;99.90;;;;;;5051565;28;20460;-68
2022/06/24 01:53:47;;;;;;;6.13;3.60;;;18.10;99.90;;;;;;5051944;28;20472;-67
2022/06/24 01:56:15;;;;;;;7.17;4.10;;;18.10;99.90;;;;;;5051752;28;20444;-67
2022/06/24 01:58:42;;;;;;;8.37;4.60;;;18.00;99.90;;;;;;5051466;28;20498;-68
2022/06/24 02:01:09;;;;;;;8.50;4.73;;;18.00;99.90;;;;;;5051340;28;20450;-67
2022/06/24 02:03:37;;;;;;;7.23;4.57;;;18.00;99.90;;;;;;5051337;28;20480;-67
2022/06/24 02:06:07;;;;;;;6.77;4.40;;;18.00;99.90;;;;;;5051799;28;20521;-67
2022/06/24 02:08:34;;;;;;;7.30;4.37;;;18.00;99.90;;;;;;5051496;28;20475;-67
2022/06/24 02:13:48;;;;;;;6.93;4.30;;;18.00;99.90;;;;;;5051338;28;21163;-67
2022/06/24 02:16:18;;;;;;;9.90;6.20;;;18.00;99.90;;;;;;5051497;28;20439;-67
2022/06/24 02:18:46;;;;;;;8.13;4.87;;;17.90;99.90;;;;;;5051202;28;20484;-68
2022/06/24 02:21:13;;;;;;;6.87;4.10;;;18.00;99.90;;;;;;5050860;28;20494;-68
2022/06/24 02:23:40;;;;;;;6.30;5.07;;;18.00;99.90;;;;;;5050921;28;20492;-68
2022/06/24 02:26:07;;;;;;;8.03;4.70;;;18.00;99.90;;;;;;5051084;28;20930;-67
2022/06/24 02:28:34;;;;;;;7.40;4.50;;;18.00;99.90;;;;;;5051241;28;20452;-66
2022/06/24 02:31:03;;;;;;;7.50;4.13;;;18.00;99.90;;;;;;5050774;28;20490;-67
2022/06/24 02:33:30;;;;;;;8.43;3.80;;;17.90;99.90;;;;;;5051091;28;20498;-66
2022/06/24 02:35:57;;;;;;;9.90;4.67;;;17.90;99.90;;;;;;5050921;28;20531;-67
2022/06/24 02:38:24;;;;;;;9.43;4.70;;;17.90;99.90;;;;;;5051251;28;20490;-68
2022/06/24 02:40:52;;;;;;;6.93;4.07;;;17.80;99.90;;;;;;5050751;28;20447;-67
2022/06/24 02:43:20;;;;;;;9.53;4.40;;;17.80;99.90;;;;;;5050965;28;20841;-66
2022/06/24 02:45:49;;;;;;;6.40;4.70;;;17.80;99.90;;;;;;5050744;28;20471;-68
2022/06/24 02:48:18;;;;;;;10.63;4.93;;;17.70;99.90;;;;;;5050856;28;20448;-66
2022/06/24 02:50:47;;;;;;;7.37;5.00;;;17.70;99.90;;;;;;5050315;28;20448;-67
2022/06/24 02:53:15;;;;;;;9.30;4.93;;;17.70;99.90;;;;;;5050656;28;20982;-67
2022/06/24 02:55:43;;;;;;;9.73;5.30;;;17.70;99.90;;;;;;5050515;28;20510;-67
2022/06/24 02:58:10;;;;;;;7.90;5.70;;;17.60;99.90;;;;;;5050707;28;20440;-67
2022/06/24 03:00:39;;;;;;;8.90;5.13;;;17.60;99.90;;;;;;5050196;28;20448;-67
2022/06/24 03:03:06;;;;;;;8.57;4.80;;;17.60;99.90;;;;;;5050399;28;20468;-66
2022/06/24 03:05:34;;;;;;;7.47;5.20;;;17.60;99.90;;;;;;5050660;28;20482;-67
2022/06/24 03:08:01;;;;;;;8.80;5.20;;;17.60;99.90;;;;;;5050319;28;20466;-67
2022/06/24 03:10:28;;;;;;;10.70;6.47;;;17.60;99.90;;;;;;5050093;28;20448;-68
2022/06/24 03:12:55;;;;;;;8.00;5.13;;;17.60;99.90;;;;;;5050144;28;20460;-65
2022/06/24 03:15:22;;;;;;;9.43;5.53;;;17.50;99.90;;;;;;5050216;28;20452;-68
2022/06/24 03:17:49;;;;;;;11.40;5.93;;;17.50;99.90;;;;;;5050174;28;20447;-67
2022/06/24 03:20:16;;;;;;;8.40;5.40;;;17.50;99.90;;;;;;5049874;28;21009;-67
2022/06/24 03:22:44;;;;;;;7.03;4.70;;;17.50;99.90;;;;;;5049033;28;20824;-68
2022/06/24 03:25:10;;;;;;;9.70;6.63;;;17.50;99.90;;;;;;5050444;28;20452;-67
2022/06/24 03:27:38;;;;;;;7.60;4.87;;;17.40;99.90;;;;;;5050225;28;20444;-67
2022/06/24 03:30:06;;;;;;;9.00;5.07;;;17.50;99.90;;;;;;5050068;28;20452;-67
2022/06/24 03:32:33;;;;;;;9.40;5.90;;;17.50;99.90;;;;;;5050273;28;20479;-66
2022/06/24 03:35:00;;;;;;;6.67;4.40;;;17.40;99.90;;;;;;5050429;28;20454;-68
2022/06/24 03:37:28;;;;;;;7.20;4.50;;;17.30;99.90;;;;;;5050442;28;20459;-67
2022/06/24 03:39:57;;;;;;;6.30;4.90;;;17.30;99.90;;;;;;5049774;28;20484;-68
2022/06/24 03:42:24;;;;;;;8.57;5.13;;;17.30;99.90;;;;;;5050065;28;20472;-68
2022/06/24 03:44:51;;;;;;;6.70;5.47;;;17.30;99.90;;;;;;5049886;28;20447;-67
2022/06/24 03:47:18;;;;;;;9.10;4.77;;;17.30;99.90;;;;;;5050351;28;20699;-67
2022/06/24 03:49:45;;;;;;;7.13;5.30;;;17.30;99.90;;;;;;5049683;28;20432;-68
2022/06/24 03:52:11;;;;;;;8.17;5.00;;;17.30;99.90;;;;;;5049547;28;20472;-67
2022/06/24 03:54:39;;;;;;;12.03;5.67;;;17.30;99.90;;;;;;5049709;28;20443;-67
2022/06/24 03:57:07;;;;;;;6.00;4.50;;;17.30;99.90;;;;;;5049840;28;20450;-67
2022/06/24 03:59:34;;;;;;;7.93;5.07;;;17.20;99.90;;;;;;5049502;28;20482;-68
2022/06/24 04:02:01;;;;;;;6.90;5.70;;;17.20;99.90;;;;;;5049615;28;20482;-67
2022/06/24 04:04:27;;;;;;;6.63;5.40;;;17.30;99.90;;;;;;5049711;28;20444;-68
2022/06/24 04:06:55;;;;;;;9.10;4.73;;;17.30;99.90;;;;;;5049834;28;20436;-65
2022/06/24 04:09:22;;;;;;;8.47;5.17;;;17.30;99.90;;;;;;5049563;28;20448;-64
2022/06/24 04:11:48;;;;;;;8.77;6.77;;;17.20;99.90;;;;;;5049050;28;20848;-69
2022/06/24 04:15:13;;;;;;;7.87;5.60;;;17.20;99.90;;;;;;5049723;28;20443;-68
2022/06/24 04:17:04;;;;;;;9.80;5.43;;;17.20;99.90;;;;;;5049283;28;20836;-68
2022/06/24 04:19:31;;;;;;;9.43;5.53;;;17.30;99.90;;;;;;5048799;28;20483;-70
2022/06/24 04:21:58;;;;;;;13.30;5.70;;;17.30;99.90;;;;;;5048933;28;20456;-69
2022/06/24 04:24:25;;;;;;;8.47;5.40;;;17.30;99.90;;;;;;5049415;28;20432;-69
2022/06/24 04:26:51;;;;;;;8.83;5.20;;;17.30;99.90;;;;;;5049125;28;21008;-70
2022/06/24 04:29:20;;;;;;;7.60;5.07;;;17.30;99.90;;;;;;5048731;28;20918;-69
2022/06/24 04:31:46;;;;;;;9.03;6.00;;;17.30;99.90;;;;;;5048659;28;20448;-68
2022/06/24 04:34:13;;;;;;;7.10;5.00;;;17.40;99.90;;;;;;5051638;28;20539;-68
2022/06/24 04:36:40;;;;;;;10.13;6.37;;;17.50;99.90;;;;;;5053284;28;20538;-69
2022/06/24 04:39:07;;;;;;;7.30;6.00;;;17.60;99.90;;;;;;5053297;28;20475;-66
2022/06/24 04:41:34;;;;;;;11.53;6.13;;;17.70;99.90;;;;;;5052711;28;20444;-67
2022/06/24 04:44:00;;;;;;;7.60;5.90;;;17.60;99.90;;;;;;5053209;28;20440;-68
2022/06/24 04:46:28;;;;;;;11.23;5.90;;;17.70;99.90;;;;;;5053358;28;20893;-68
2022/06/24 04:48:55;;;;;;;6.43;4.83;;;17.70;99.90;;;;;;5053055;28;20444;-68
2022/06/24 04:51:22;;;;;;;10.73;6.27;;;17.80;99.90;;;;;;5052831;28;20447;-69
2022/06/24 04:53:49;;;;;;;12.37;6.30;;;17.80;99.90;;;;;;5052711;28;20499;-67
2022/06/24 04:56:16;;;;;;;7.90;5.50;;;17.80;99.90;;;;;;5053078;28;20798;-68
2022/06/24 04:58:43;;;;;;;11.57;6.00;;;17.90;99.90;;;;;;5041125;28;20961;-69
2022/06/24 05:01:09;;;;;;;10.33;5.60;;;17.80;99.90;;;;;;5047523;28;20454;-68
2022/06/24 05:03:37;;;;;;;9.60;6.40;;;17.90;99.90;;;;;;5040698;28;20474;-69
2022/06/24 05:06:04;;;;;;;10.80;6.23;;;17.90;99.90;;;;;;5040752;28;20455;-68
2022/06/24 05:08:31;;;;;;;9.57;5.63;;;18.00;99.90;;;;;;5043843;28;21118;-69
2022/06/24 05:10:58;;;;;;;8.87;5.43;;;18.00;99.90;;;;;;5048904;28;20941;-68
2022/06/24 05:13:25;;;;;;;7.30;5.83;;;18.10;99.90;;;;;;5045583;28;20452;-68
2022/06/24 05:15:51;;;;;;;7.30;5.30;;;18.10;99.90;;;;;;5050046;28;20949;-70
2022/06/24 05:18:20;;;;;;;6.37;5.10;;;18.20;99.90;;;;;;5044660;28;20451;-69
2022/06/24 05:20:48;;;;;;;7.27;5.23;;;18.20;99.90;;;;;;5044567;28;21071;-70
2022/06/24 05:23:14;;;;;;;8.57;5.23;;;18.20;99.90;;;;;;5039977;28;20460;-70
2022/06/24 05:25:41;;;;;;;9.10;5.60;;;18.30;99.90;;;;;;5051151;28;20436;-71
2022/06/24 05:28:08;;;;;;;7.10;4.77;;;18.40;99.90;;;;;;5050970;28;20436;-70
2022/06/24 05:30:35;;;;;;;7.30;4.83;;;18.50;99.90;;;;;;5050586;28;20539;-70
2022/06/24 05:33:02;;;;;;;9.67;5.87;;;18.50;99.90;;;;;;5050860;28;20464;-70
2022/06/24 05:35:28;;;;;;;7.07;4.83;;;18.60;99.90;;;;;;5050698;28;20535;-70
2022/06/24 05:37:57;;;;;;;11.13;4.80;;;18.70;99.90;;;;;;5050987;28;20443;-71
2022/06/24 05:40:23;;;;;;;13.10;5.30;;;18.70;99.90;;;;;;5052192;28;20472;-70
2022/06/24 05:42:50;;;;;;;10.80;5.40;;;18.80;99.90;;;;;;5052487;28;20490;-71
2022/06/24 05:45:17;;;;;;;7.27;4.77;;;18.90;99.90;;;;;;5047433;28;20923;-72
2022/06/24 05:47:44;;;;;;;8.10;5.03;;;19.00;99.90;;;;;;5051196;28;20436;-71
2022/06/24 05:50:11;;;;;;;8.90;4.73;;;19.00;99.90;;;;;;5050767;28;20432;-71
2022/06/24 05:55:23;;;;;;;7.10;4.03;;;19.20;99.90;;;;;;5051199;28;20419;-71
2022/06/24 05:57:50;;;;;;;10.87;5.30;;;19.30;99.90;;;;;;5051247;28;20809;-70
2022/06/24 06:00:17;;;;;;;7.80;4.70;;;19.50;99.90;;;;;;5051050;28;20483;-71
2022/06/24 06:02:44;;;;;;;7.63;3.93;;;19.60;99.90;;;;;;5050615;28;20460;-70
2022/06/24 06:05:11;;;;;;;6.17;4.40;;;19.70;99.90;;;;;;5051313;28;20440;-71
2022/06/24 06:07:38;;;;;;;7.13;3.77;;;19.70;99.90;;;;;;5050586;28;20455;-71
2022/06/24 06:10:06;;;;;;;10.50;4.23;;;19.80;99.90;;;;;;5048979;28;20459;-70
2022/06/24 06:12:36;;;;;;;8.67;3.70;;;20.00;99.90;;;;;;5037456;28;20464;-70
2022/06/24 06:15:03;;;;;;;8.60;4.80;;;20.10;99.90;;;;;;5030837;28;20989;-69
2022/06/24 06:17:30;;;;;;;11.10;4.60;;;20.20;99.90;;;;;;5031147;28;20437;-70
2022/06/24 06:19:57;;;;;;;6.43;4.00;;;20.30;99.90;;;;;;5030503;28;20495;-70
2022/06/24 06:22:24;;;;;;;6.80;3.77;;;20.30;99.90;;;;;;5030790;28;20452;-70
2022/06/24 06:24:51;;;;;;;8.63;4.93;;;20.40;99.90;;;;;;5030877;28;20931;-71
2022/06/24 06:27:18;;;;;;;8.67;3.77;;;20.50;99.90;;;;;;5031065;28;20535;-71
2022/06/24 06:29:46;;;;;;;6.70;3.70;;;20.50;99.90;;;;;;5030715;28;20444;-70
2022/06/24 06:32:13;;;;;;;6.00;3.20;;;20.60;99.90;;;;;;5030523;28;20549;-71
2022/06/24 06:34:40;;;;;;;7.53;4.63;;;20.60;99.90;;;;;;5030922;28;20841;-71
2022/06/24 06:37:07;;;;;;;9.50;3.90;;;20.70;99.90;;;;;;5030971;28;20945;-71
2022/06/24 06:39:34;;;;;;;6.90;3.70;;;20.80;99.90;;;;;;5030749;28;20575;-71
2022/06/24 06:42:01;;;;;;;10.40;3.47;;;20.80;99.90;;;;;;5030074;28;20894;-71
2022/06/24 06:44:27;;;;;;;6.27;3.33;;;20.90;99.90;;;;;;5030888;28;20555;-67
2022/06/24 06:46:56;;;;;;;7.20;3.90;;;21.00;99.90;;;;;;5031618;28;20448;-67
2022/06/24 06:49:22;;;;;;;9.53;3.67;;;21.10;99.90;;;;;;5031480;28;20640;-77
2022/06/24 06:51:49;;;;;;;8.07;4.17;;;21.10;99.90;;;;;;5030994;28;20524;-69
2022/06/24 06:54:16;;;;;;;5.67;3.80;;;21.20;99.90;;;;;;5031381;28;20455;-67
2022/06/24 06:56:43;;;;;;;7.43;4.00;;;21.30;99.90;;;;;;5030825;28;20930;-67
2022/06/24 06:59:10;;;;;;;9.77;3.93;;;21.40;99.90;;;;;;5031244;28;20807;-68
2022/06/24 07:01:37;;;;;;;6.23;4.33;;;21.60;99.90;;;;;;5030815;28;20480;-67
2022/06/24 07:04:05;;;;;;;7.00;3.60;;;21.70;99.90;;;;;;5031069;28;20447;-68
2022/06/24 07:06:32;;;;;;;6.07;3.40;;;21.90;99.90;;;;;;5031120;28;20476;-68
2022/06/24 07:08:59;;;;;;;6.00;2.97;;;22.00;99.90;;;;;;5030998;28;20448;-68
2022/06/24 07:11:26;;;;;;;6.87;3.30;;;22.10;99.90;;;;;;5030471;28;20506;-67
2022/06/24 07:13:54;;;;;;;7.23;3.90;;;22.20;99.90;;;;;;5031093;28;20461;-67
2022/06/24 07:16:21;;;;;;;7.40;3.37;;;22.40;99.90;;;;;;5031021;28;20453;-67
2022/06/24 07:18:48;;;;;;;7.63;3.17;;;22.50;99.90;;;;;;5031005;28;20437;-68
2022/06/24 07:21:16;;;;;;;5.83;2.90;;;22.50;99.90;;;;;;5030355;28;20480;-67
2022/06/24 07:23:43;;;;;;;4.60;2.77;;;22.70;99.90;;;;;;5030672;28;20971;-67
2022/06/24 07:26:10;;;;;;;5.97;2.87;;;22.90;99.90;;;;;;5030886;28;20432;-67
2022/06/24 07:28:38;;;;;;;6.80;2.80;;;22.90;99.90;;;;;;5030950;28;20467;-67
2022/06/24 07:31:13;;;;;;;6.10;3.30;;;22.80;99.90;;;;;;5030477;28;21002;-68
2022/06/24 07:33:40;;;;;;;5.30;3.10;;;22.70;99.90;;;;;;5030355;28;20461;-68
2022/06/24 07:36:07;;;;;;;6.77;3.50;;;22.80;99.90;;;;;;5030441;28;20800;-67
2022/06/24 07:38:35;;;;;;;6.53;3.27;;;23.00;99.90;;;;;;5030361;28;20448;-68
2022/06/24 07:41:02;;;;;;;6.27;3.53;;;23.30;99.90;;;;;;5030254;28;20484;-68
2022/06/24 07:43:29;;;;;;;6.07;3.63;;;23.40;99.90;;;;;;5030298;28;20967;-69
2022/06/24 07:45:56;;;;;;;6.50;3.30;;;23.60;99.90;;;;;;5030356;28;20487;-68
2022/06/24 07:48:23;;;;;;;4.77;3.17;;;23.90;99.90;;;;;;5030227;28;20441;-68
2022/06/24 07:50:50;;;;;;;5.80;3.20;;;24.10;99.90;;;;;;5030038;28;20439;-68
2022/06/24 07:53:17;;;;;;;5.80;3.23;;;24.20;99.90;;;;;;5030278;28;20469;-67
2022/06/24 07:58:29;;;;;;;6.93;3.40;;;24.20;99.90;;;;;;5030201;28;20440;-68
2022/06/24 08:00:56;;;;;;;5.88;2.80;;;23.70;99.90;;;;;;5030062;28;20458;-67
2022/06/24 08:03:23;;;;;;;6.43;3.00;;;23.50;99.90;;;;;;5037301;28;20759;-67
2022/06/24 08:05:50;;;;;;;5.20;3.10;;;23.30;99.90;;;;;;5049542;28;20906;-68
2022/06/24 08:08:17;;;;;;;5.30;2.90;;;23.30;99.90;;;;;;5044664;28;20531;-67
2022/06/24 08:10:45;;;;;;;4.60;2.90;;;23.20;99.90;;;;;;5048052;28;20435;-67
2022/06/24 08:13:13;;;;;;;6.80;2.90;;;23.30;99.90;;;;;;5049673;28;20467;-68
2022/06/24 08:15:40;;;;;;;8.00;2.90;;;23.20;99.90;;;;;;5049644;28;20448;-67
2022/06/24 08:18:07;;;;;;;7.33;3.50;;;23.10;99.90;;;;;;5043404;28;20446;-67
2022/06/24 08:20:34;;;;;;;5.10;2.83;;;23.10;99.90;;;;;;5049453;28;20833;-66
2022/06/24 08:23:01;;;;;;;5.67;3.13;;;23.10;99.90;;;;;;5049581;28;20460;-67
2022/06/24 08:25:28;;;;;;;6.13;2.60;;;23.10;99.90;;;;;;5049683;28;20450;-67
2022/06/24 08:27:56;;;;;;;6.33;2.90;;;23.10;99.90;;;;;;5049718;28;20966;-67
2022/06/24 08:30:23;;;;;;;4.47;2.63;;;23.20;99.90;;;;;;5049285;28;20435;-67
2022/06/24 08:32:50;;;;;;;5.30;2.90;;;23.50;99.90;;;;;;5049737;28;21084;-67
2022/06/24 08:35:17;;;;;;;5.60;2.40;;;23.70;99.90;;;;;;5049520;28;20516;-66
2022/06/24 08:37:44;;;;;;;5.40;2.43;;;23.80;99.90;;;;;;5049436;28;20435;-67
2022/06/24 08:40:12;;;;;;;4.57;2.20;;;23.90;99.90;;;;;;5049227;28;20583;-67
2022/06/24 08:42:39;;;;;;;5.10;2.20;;;24.00;99.90;;;;;;5048470;28;20468;-67
2022/06/24 08:45:09;;;;;;;3.07;1.80;;;24.20;99.90;;;;;;5045161;28;20455;-67
2022/06/24 08:47:36;;;;;;;3.30;2.07;;;24.50;99.90;;;;;;5046995;28;21236;-67
2022/06/24 08:50:04;;;;;;;5.83;2.37;;;25.10;99.90;;;;;;5047765;28;20452;-67
2022/06/24 08:52:31;;;;;;;5.37;2.50;;;25.60;99.90;;;;;;5047125;28;20460;-67
2022/06/24 08:55:00;;;;;;;4.77;2.60;;;25.70;99.90;;;;;;5041621;28;20445;-67
2022/06/24 08:57:27;;;;;;;4.93;2.00;;;25.80;99.90;;;;;;5045653;28;20452;-67
2022/06/24 08:59:54;;;;;;;3.80;2.43;;;25.70;99.90;;;;;;5042820;28;20440;-67
2022/06/24 09:02:22;;;;;;;5.47;2.73;;;25.70;99.90;;;;;;5029186;28;20452;-69
2022/06/24 09:04:48;;;;;;;5.70;2.77;;;25.50;99.90;;;;;;5029409;28;20923;-67
2022/06/24 09:07:24;;;;;;;6.20;4.13;;;25.30;99.90;;;;;;5029412;28;20528;-67
2022/06/24 09:09:58;;;;;;;4.23;3.30;;;25.00;99.90;;;;;;5041251;28;20439;-67
2022/06/24 09:12:28;;;;;;;9.50;3.47;;;24.90;99.90;;;;;;5037606;28;20449;-67
2022/06/24 09:14:55;;;;;;;7.23;3.77;;;24.80;99.90;;;;;;5029744;28;20500;-67
2022/06/24 09:17:29;;;;;;;10.23;3.80;;;24.60;99.90;;;;;;5029553;28;20461;-67
2022/06/24 09:20:04;;;;;;;6.77;3.50;;;24.40;99.90;;;;;;5030632;28;20436;-66
2022/06/24 09:22:31;;;;;;;11.07;4.00;;;24.10;99.90;;;;;;5043710;28;20460;-67
2022/06/24 09:25:01;;;;;;;4.40;3.37;;;24.10;99.90;;;;;;5049859;28;20433;-66
2022/06/24 09:27:28;;;;;;;8.00;4.03;;;24.30;99.90;;;;;;5047554;28;20448;-68
2022/06/24 09:29:55;;;;;;;8.33;3.73;;;24.50;99.90;;;;;;5050092;28;20523;-67
2022/06/24 09:32:22;;;;;;;5.47;3.67;;;24.60;99.90;;;;;;5045328;28;20475;-66
2022/06/24 09:35:01;;;;;;;8.20;3.43;;;24.60;99.90;;;;;;5049546;28;20432;-67
2022/06/24 09:37:35;;;;;;;6.00;3.60;;;24.70;99.90;;;;;;5045888;28;20438;-68
2022/06/24 09:40:15;;;;;;;9.03;3.60;;;25.10;99.90;;;;;;5052143;28;20436;-68
2022/06/24 09:42:42;;;;;;;6.80;3.73;;;25.30;99.90;;;;;;5052433;28;21020;-68
2022/06/24 09:45:10;;;;;;;8.63;3.20;;;25.70;99.90;;;;;;5052333;28;20800;-68
2022/06/24 09:47:39;;;;;;;4.80;2.67;;;26.00;99.90;;;;;;5035605;28;20444;-67
2022/06/24 09:50:08;;;;;;;6.50;3.33;;;26.40;99.90;;;;;;5051998;28;20431;-66
2022/06/24 09:52:35;;;;;;;4.47;2.60;;;26.80;99.90;;;;;;5052138;28;20455;-68
2022/06/24 09:55:03;;;;;;;4.77;2.60;;;27.20;99.90;;;;;;5052326;28;20482;-67
2022/06/24 09:57:31;;;;;;;6.40;2.83;;;27.60;99.90;;;;;;5051123;28;20444;-69
2022/06/24 10:02:43;;;;;;;4.73;2.80;;;28.20;99.90;;;;;;5051633;28;20821;-68
2022/06/24 10:05:15;;;;;;;5.03;2.73;;;28.30;99.90;;;;;;5051951;28;20428;-68
2022/06/24 10:07:47;;;;;;;9.27;2.97;;;27.80;99.90;;;;;;5048839;28;20465;-68
2022/06/24 10:10:15;;;;;;;4.67;3.27;;;27.30;99.90;;;;;;5048273;28;20436;-67
2022/06/24 10:12:46;;;;;;;9.50;4.07;;;27.10;99.90;;;;;;5049136;28;20510;-67
2022/06/24 10:15:15;;;;;;;5.67;2.97;;;26.70;99.90;;;;;;5047372;28;20451;-68
2022/06/24 10:17:43;;;;;;;5.13;3.23;;;26.70;99.90;;;;;;5046454;28;20440;-68
2022/06/24 10:20:12;;;;;;;7.17;3.60;;;26.90;99.90;;;;;;5045165;28;20424;-67
2022/06/24 10:22:42;;;;;;;4.67;2.67;;;27.00;99.90;;;;;;5051596;28;20863;-68
2022/06/24 10:25:10;;;;;;;5.30;2.53;;;26.90;99.90;;;;;;5051613;28;20835;-69
2022/06/24 10:28:06;;;;;;;4.27;2.73;;;27.40;99.90;;;;;;5051833;28;20444;-67
2022/06/24 10:30:56;;;;;;;3.60;2.70;;;27.60;99.90;;;;;;5051171;28;20493;-68
2022/06/24 10:33:27;;;;;;;8.37;2.93;;;28.30;99.90;;;;;;5051399;28;20456;-67
2022/06/24 10:36:13;;;;;;;6.87;3.17;;;29.30;99.90;;;;;;5048713;28;20448;-68
2022/06/24 10:38:41;;;;;;;6.07;2.87;;;29.80;99.60;;;;;;5045925;28;20816;-68
2022/06/24 10:41:11;;;;;;;3.60;2.80;;;29.20;99.90;;;;;;5050373;28;20487;-68
2022/06/24 10:43:40;;;;;;;4.47;3.20;;;28.80;99.90;;;;;;5051006;28;20456;-67
2022/06/24 10:46:20;;;;;;;5.40;3.57;;;29.30;98.90;;;;;;5050837;28;20567;-69
2022/06/24 10:49:02;;;;;;;5.70;2.57;;;29.70;98.50;;;;;;5051355;28;20518;-68
2022/06/24 10:51:34;;;;;;;6.83;3.40;;;29.50;98.00;;;;;;5050927;28;20438;-68
2022/06/24 10:54:14;;;;;;;6.43;2.67;;;28.70;99.90;;;;;;5051316;28;20440;-67
2022/06/24 10:56:44;;;;;;;5.33;3.30;;;28.20;99.90;;;;;;5051364;28;20440;-67
2022/06/24 10:59:12;;;;;;;5.43;3.10;;;27.90;99.90;;;;;;5051245;28;20443;-67
2022/06/24 11:01:42;;;;;;;3.63;2.90;;;27.50;99.90;;;;;;5050758;28;20580;-68
2022/06/24 11:04:11;;;;;;;6.53;3.60;;;27.40;99.90;;;;;;5050863;28;20436;-67
2022/06/24 11:06:40;;;;;;;4.10;2.90;;;27.30;99.90;;;;;;5050940;28;20447;-67
2022/06/24 11:09:07;;;;;;;6.10;2.83;;;26.80;99.90;;;;;;5049861;28;20521;-66
2022/06/24 11:11:35;;;;;;;6.03;3.13;;;26.50;99.90;;;;;;5050636;28;20440;-67
2022/06/24 11:14:24;;;;;;;4.50;2.97;;;26.50;99.90;;;;;;5050897;28;20458;-67
2022/06/24 11:16:50;;;;;;;3.97;2.50;;;26.80;99.90;;;;;;5050785;28;20934;-66
2022/06/24 11:19:18;;;;;;;4.90;2.47;;;26.80;99.90;;;;;;5050601;28;21143;-66
2022/06/24 11:21:50;;;;;;;4.50;2.60;;;26.70;99.90;;;;;;5050399;28;20479;-67
2022/06/24 11:24:19;;;;;;;3.70;2.57;;;26.70;99.90;;;;;;5050575;28;20444;-66
2022/06/24 11:27:04;;;;;;;6.10;3.00;;;26.60;99.90;;;;;;5050516;28;21166;-67
2022/06/24 11:29:49;;;;;;;7.90;3.03;;;26.60;99.90;;;;;;5050493;28;20436;-67
2022/06/24 11:32:16;;;;;;;4.70;2.60;;;26.50;99.90;;;;;;5050549;28;20535;-66
2022/06/24 11:34:44;;;;;;;4.77;2.53;;;26.50;99.90;;;;;;5050536;28;20501;-66
2022/06/24 11:37:12;;;;;;;7.40;2.97;;;26.60;99.90;;;;;;5050538;28;20440;-67
2022/06/24 11:39:39;;;;;;;7.40;3.37;;;27.00;99.90;;;;;;5050334;28;20443;-69
2022/06/24 11:42:07;;;;;;;4.50;2.63;;;26.90;99.90;;;;;;5049803;28;20475;-66
2022/06/24 11:44:35;;;;;;;3.77;2.37;;;26.60;99.90;;;;;;5049792;28;20454;-66
2022/06/24 11:47:02;;;;;;;3.77;2.83;;;26.30;99.90;;;;;;5047783;28;21031;-67
2022/06/24 11:49:31;;;;;;;4.47;2.63;;;26.10;99.90;;;;;;5047118;28;20440;-67
2022/06/24 11:51:58;;;;;;;5.37;2.20;;;26.30;99.90;;;;;;5047076;28;20458;-67
2022/06/24 11:54:28;;;;;;;3.50;2.20;;;26.60;99.90;;;;;;5038350;28;20455;-67
2022/06/24 11:56:55;;;;;;;5.90;2.60;;;26.80;99.90;;;;;;5039075;28;20486;-67
2022/06/24 11:59:23;;;;;;;4.57;2.23;;;27.00;99.90;;;;;;5037175;28;20452;-66
2022/06/24 12:01:51;;;;;;;5.30;2.17;;;27.00;99.90;;;;;;5036219;28;20476;-71
2022/06/24 12:04:20;;;;;;;5.13;2.23;;;26.70;99.90;;;;;;5037160;28;20468;-67
2022/06/24 12:06:48;;;;;;;4.30;1.90;;;26.40;99.90;;;;;;5039526;28;20539;-67
2022/06/24 12:09:17;;;;;;;5.40;2.17;;;26.20;99.90;;;;;;5040376;28;20505;-67
2022/06/24 12:11:46;;;;;;;5.50;2.70;;;26.10;99.90;;;;;;5039597;28;20450;-69
2022/06/24 12:14:15;;;;;;;11.93;10.10;;;26.10;99.90;;;;;;5034064;28;20816;-66
2022/06/24 12:16:59;;;;;;;6.70;3.30;;;26.30;99.90;;;;;;5039104;28;20449;-69
2022/06/24 12:19:26;;;;;;;6.97;6.10;;;26.70;99.90;;;;;;5038333;28;20463;-70
2022/06/24 12:22:06;;;;;;;4.50;3.43;;;27.40;97.90;;;;;;5041690;28;20856;-68
2022/06/24 12:24:33;;;;;;;4.70;3.60;;;28.00;98.30;;;;;;5039753;28;20464;-68
2022/06/24 12:27:03;;;;;;;4.80;3.37;;;28.40;96.80;;;;;;5037698;28;20455;-68
2022/06/24 12:29:32;;;;;;;2.60;2.03;;;28.80;96.30;;;;;;5043287;28;21479;-68
2022/06/24 12:32:02;;;;;;;2.17;1.40;;;29.30;94.70;;;;;;5040581;28;20453;-67
2022/06/24 12:34:31;;;;;;;3.13;1.30;;;29.70;94.20;;;;;;5038967;28;20443;-67
2022/06/24 12:37:00;;;;;;;2.60;1.40;;;29.70;93.70;;;;;;5031085;28;20442;-68
2022/06/24 12:39:29;;;;;;;2.50;1.70;;;29.60;92.60;;;;;;5039802;28;20910;-67
2022/06/24 12:41:56;;;;;;;3.43;1.60;;;29.20;94.90;;;;;;5035229;28;20488;-68
2022/06/24 12:44:25;;;;;;;5.30;2.90;;;28.60;95.00;;;;;;5039525;28;20918;-67
2022/06/24 12:52:36;;;;;;;2.77;1.50;;;27.10;95.20;;;;;;5039322;28;20519;-67
2022/06/24 12:55:04;;;;;;;3.03;1.70;;;27.40;96.40;;;;;;5038974;28;20809;-68
2022/06/24 12:57:31;;;;;;;2.60;1.53;;;27.20;96.90;;;;;;5041733;28;20440;-68
2022/06/24 12:59:59;;;;;;;2.63;1.80;;;27.00;97.90;;;;;;5037206;28;20451;-68
2022/06/24 13:02:26;;;;;;;2.20;1.50;;;26.80;97.50;;;;;;5038991;28;20566;-67
2022/06/24 13:04:53;;;;;;;3.47;1.80;;;26.80;98.80;;;;;;5042820;28;20451;-68
2022/06/24 13:07:20;;;;;;;3.50;1.80;;;26.80;99.40;;;;;;5042050;28;20451;-67
2022/06/24 13:09:47;;;;;;;4.73;2.27;;;26.80;99.10;;;;;;5037771;28;20445;-67